createdAt,value
2023-01-29T00:00:09.636Z,6.20
2023-01-29T00:02:41.420Z,5.50
2023-01-29T00:05:26.139Z,6.00
2023-01-29T00:07:52.825Z,5.80
2023-01-29T00:10:18.857Z,6.00
2023-01-29T00:12:44.845Z,6.40
2023-01-29T00:15:11.117Z,6.40
2023-01-29T00:17:37.094Z,6.80
2023-01-29T00:20:03.263Z,6.40
2023-01-29T00:22:30.217Z,6.30
2023-01-29T00:24:56.113Z,5.80
2023-01-29T00:27:22.007Z,5.80
2023-01-29T00:30:07.970Z,5.80
2023-01-29T00:32:35.095Z,5.80
2023-01-29T00:35:01.438Z,6.40
2023-01-29T00:37:27.341Z,5.70
2023-01-29T00:39:53.262Z,6.20
2023-01-29T00:42:37.817Z,5.40
2023-01-29T00:45:04.264Z,5.90
2023-01-29T00:47:30.273Z,5.30
2023-01-29T00:49:56.668Z,5.30
2023-01-29T00:52:23.495Z,5.30
2023-01-29T00:54:50.269Z,5.40
2023-01-29T00:57:16.249Z,5.60
2023-01-29T00:59:42.207Z,5.60
2023-01-29T01:02:26.862Z,5.30
2023-01-29T01:04:52.976Z,5.20
2023-01-29T01:07:19.320Z,5.40
2023-01-29T01:10:03.966Z,5.60
2023-01-29T01:12:31.173Z,5.40
2023-01-29T01:14:57.355Z,5.30
2023-01-29T01:17:23.477Z,6.00
2023-01-29T01:19:49.493Z,5.40
2023-01-29T01:22:16.274Z,5.60
2023-01-29T01:24:43.379Z,6.10
2023-01-29T01:27:09.513Z,6.50
2023-01-29T01:29:36.204Z,5.80
2023-01-29T01:32:02.248Z,5.80
2023-01-29T01:34:28.303Z,5.90
2023-01-29T01:36:58.164Z,6.60
2023-01-29T01:39:24.618Z,5.60
2023-01-29T01:41:55.233Z,6.00
2023-01-29T01:45:07.345Z,6.60
2023-01-29T01:47:42.533Z,6.00
2023-01-29T01:50:11.947Z,6.90
2023-01-29T01:52:44.401Z,5.90
2023-01-29T01:55:13.809Z,6.40
2023-01-29T01:57:42.823Z,6.30
2023-01-29T02:00:13.470Z,5.30
2023-01-29T02:03:01.326Z,6.10
2023-01-29T02:05:48.171Z,5.60
2023-01-29T02:08:45.427Z,6.30
2023-01-29T02:11:11.357Z,6.30
2023-01-29T02:13:37.853Z,6.30
2023-01-29T02:16:04.135Z,6.00
2023-01-29T02:18:37.321Z,6.70
2023-01-29T02:21:35.458Z,6.00
2023-01-29T02:24:30.402Z,5.60
2023-01-29T02:27:11.705Z,6.00
2023-01-29T02:29:55.910Z,6.10
2023-01-29T02:32:33.693Z,5.90
2023-01-29T02:35:24.680Z,7.10
2023-01-29T02:38:23.306Z,6.70
2023-01-29T02:40:58.136Z,5.50
2023-01-29T02:43:30.316Z,5.90
2023-01-29T02:46:11.600Z,6.10
2023-01-29T02:49:05.108Z,5.70
2023-01-29T02:51:41.456Z,5.80
2023-01-29T02:54:33.380Z,6.10
2023-01-29T02:57:07.647Z,7.40
2023-01-29T02:59:40.288Z,6.30
2023-01-29T03:02:12.007Z,5.60
2023-01-29T03:04:45.849Z,6.40
2023-01-29T03:07:40.667Z,5.50
2023-01-29T03:10:31.254Z,6.10
2023-01-29T03:13:02.995Z,6.20
2023-01-29T03:15:38.469Z,6.30
2023-01-29T03:18:21.997Z,5.50
2023-01-29T03:20:57.821Z,5.60
2023-01-29T03:23:47.995Z,5.50
2023-01-29T03:26:35.262Z,4.80
2023-01-29T03:29:22.557Z,5.20
2023-01-29T03:32:08.438Z,5.20
2023-01-29T03:34:43.051Z,5.40
2023-01-29T03:37:34.345Z,6.00
2023-01-29T03:40:04.623Z,5.20
2023-01-29T03:42:33.797Z,5.70
2023-01-29T03:45:13.892Z,5.70
2023-01-29T03:48:01.693Z,5.40
2023-01-29T03:50:31.984Z,5.50
2023-01-29T03:53:24.562Z,5.30
2023-01-29T03:56:12.478Z,4.90
2023-01-29T03:58:45.836Z,5.20
2023-01-29T04:01:23.715Z,5.30
2023-01-29T04:03:58.234Z,5.20
2023-01-29T04:06:29.478Z,5.40
2023-01-29T04:11:42.681Z,4.80
2023-01-29T04:14:08.963Z,5.20
2023-01-29T04:16:39.359Z,5.50
2023-01-29T04:19:19.518Z,5.30
2023-01-29T04:21:50.231Z,5.10
2023-01-29T04:24:16.683Z,6.30
2023-01-29T04:27:24.582Z,5.60
2023-01-29T04:30:24.083Z,5.30
2023-01-29T04:33:26.096Z,5.90
2023-01-29T04:36:29.300Z,5.20
2023-01-29T04:39:15.195Z,5.30
2023-01-29T04:41:51.131Z,5.70
2023-01-29T04:44:32.069Z,5.70
2023-01-29T04:47:24.169Z,5.50
2023-01-29T04:50:08.833Z,6.50
2023-01-29T04:53:11.419Z,6.10
2023-01-29T04:55:44.508Z,6.70
2023-01-29T04:58:32.114Z,6.20
2023-01-29T05:01:00.381Z,5.70
2023-01-29T05:03:29.233Z,5.90
2023-01-29T05:05:57.401Z,6.20
2023-01-29T05:08:25.591Z,6.90
2023-01-29T05:10:54.766Z,6.50
2023-01-29T05:13:22.715Z,6.70
2023-01-29T05:15:54.526Z,6.20
2023-01-29T05:18:20.894Z,6.30
2023-01-29T05:20:47.885Z,6.20
2023-01-29T05:23:18.232Z,6.20
2023-01-29T05:25:45.696Z,7.10
2023-01-29T05:28:17.794Z,6.50
2023-01-29T05:30:46.738Z,6.30
2023-01-29T05:33:21.875Z,5.80
2023-01-29T05:35:49.090Z,6.50
2023-01-29T05:38:16.100Z,6.40
2023-01-29T05:40:42.553Z,6.70
2023-01-29T05:43:16.966Z,7.00
2023-01-29T05:45:50.839Z,6.60
2023-01-29T05:48:16.757Z,6.40
2023-01-29T05:50:42.704Z,7.10
2023-01-29T05:53:08.753Z,6.30
2023-01-29T05:55:34.762Z,5.60
2023-01-29T05:58:00.746Z,6.00
2023-01-29T06:00:26.644Z,5.90
2023-01-29T06:02:52.861Z,5.00
2023-01-29T06:05:19.083Z,5.50
2023-01-29T06:07:45.635Z,5.80
2023-01-29T06:10:14.496Z,6.00
2023-01-29T06:12:41.800Z,5.90
2023-01-29T06:15:08.252Z,6.00
2023-01-29T06:17:34.249Z,5.90
2023-01-29T06:20:00.185Z,7.10
2023-01-29T06:22:26.203Z,5.70
2023-01-29T06:24:52.114Z,5.80
2023-01-29T06:27:18.264Z,6.10
2023-01-29T06:29:44.225Z,6.40
2023-01-29T06:32:10.295Z,6.00
2023-01-29T06:34:39.129Z,6.30
2023-01-29T06:37:05.351Z,6.30
2023-01-29T06:39:31.231Z,6.60
2023-01-29T06:41:57.208Z,6.50
2023-01-29T06:44:23.136Z,6.00
2023-01-29T06:46:49.013Z,6.40
2023-01-29T06:49:15.040Z,5.80
2023-01-29T06:51:40.958Z,5.40
2023-01-29T06:54:08.484Z,6.20
2023-01-29T06:56:34.553Z,5.50
2023-01-29T06:59:00.516Z,5.40
2023-01-29T07:01:35.783Z,4.90
2023-01-29T07:04:03.148Z,5.20
2023-01-29T07:06:29.941Z,5.30
2023-01-29T07:08:56.176Z,4.60
2023-01-29T07:11:22.065Z,5.30
2023-01-29T07:13:47.949Z,5.70
2023-01-29T07:16:13.990Z,5.40
2023-01-29T07:18:39.898Z,5.00
2023-01-29T07:21:06.720Z,5.00
2023-01-29T07:23:34.833Z,5.60
2023-01-29T07:26:02.874Z,5.70
2023-01-29T07:28:29.195Z,5.20
2023-01-29T07:30:59.072Z,4.60
2023-01-29T07:33:25.779Z,4.90
2023-01-29T07:35:52.455Z,5.00
2023-01-29T07:38:18.823Z,4.90
2023-01-29T07:40:45.072Z,5.80
2023-01-29T07:43:11.147Z,5.20
2023-01-29T07:45:39.061Z,5.60
2023-01-29T07:48:07.245Z,5.70
2023-01-29T07:50:34.536Z,6.10
2023-01-29T07:53:00.849Z,5.50
2023-01-29T07:55:27.243Z,5.10
2023-01-29T07:57:57.693Z,5.40
2023-01-29T08:00:24.135Z,5.20
2023-01-29T08:02:50.193Z,5.00
2023-01-29T08:05:16.377Z,5.30
2023-01-29T08:07:42.267Z,5.50
2023-01-29T08:10:08.917Z,4.70
2023-01-29T08:12:34.865Z,4.90
2023-01-29T08:15:00.876Z,5.10
2023-01-29T08:17:26.765Z,6.50
2023-01-29T08:19:52.812Z,5.30
2023-01-29T08:22:18.747Z,6.70
2023-01-29T08:24:53.871Z,5.60
2023-01-29T08:27:26.057Z,5.20
2023-01-29T08:29:52.180Z,6.20
2023-01-29T08:32:18.112Z,5.90
2023-01-29T08:34:44.122Z,5.70
2023-01-29T08:37:10.183Z,5.00
2023-01-29T08:39:36.149Z,5.50
2023-01-29T08:42:02.110Z,5.40
2023-01-29T08:44:28.817Z,7.10
2023-01-29T08:46:54.800Z,6.90
2023-01-29T08:49:20.722Z,7.00
2023-01-29T08:51:46.837Z,9.30
2023-01-29T08:54:12.766Z,9.20
2023-01-29T08:56:38.653Z,8.20
2023-01-29T08:59:04.610Z,6.20
2023-01-29T09:01:30.563Z,5.90
2023-01-29T09:03:56.554Z,4.70
2023-01-29T09:06:22.541Z,6.90
2023-01-29T09:08:49.133Z,5.80
2023-01-29T09:11:15.076Z,6.20
2023-01-29T09:13:41.046Z,5.80
2023-01-29T09:16:07.359Z,5.60
2023-01-29T09:18:33.290Z,6.50
2023-01-29T09:20:59.328Z,7.00
2023-01-29T09:23:25.330Z,7.50
2023-01-29T09:25:51.251Z,7.00
2023-01-29T09:28:17.263Z,4.70
2023-01-29T09:30:44.292Z,5.50
2023-01-29T09:33:10.310Z,6.40
2023-01-29T09:35:36.770Z,5.40
2023-01-29T09:38:02.684Z,5.60
2023-01-29T09:40:51.132Z,6.00
2023-01-29T09:43:32.207Z,5.60
2023-01-29T09:46:03.893Z,4.60
2023-01-29T09:48:33.553Z,6.20
2023-01-29T09:51:05.822Z,5.70
2023-01-29T09:53:45.679Z,4.80
2023-01-29T09:56:17.233Z,5.30
2023-01-29T09:58:43.809Z,4.00
2023-01-29T10:01:23.586Z,5.60
2023-01-29T10:04:31.700Z,6.60
2023-01-29T10:07:22.152Z,6.50
2023-01-29T10:09:56.879Z,5.70
2023-01-29T10:12:45.035Z,5.50
2023-01-29T10:15:35.899Z,4.50
2023-01-29T10:18:04.848Z,4.80
2023-01-29T10:21:04.149Z,4.80
2023-01-29T10:23:34.741Z,4.30
2023-01-29T10:26:01.063Z,6.20
2023-01-29T10:28:33.384Z,6.30
2023-01-29T10:31:05.376Z,4.60
2023-01-29T10:34:02.385Z,5.00
2023-01-29T10:36:45.135Z,4.80
2023-01-29T10:39:25.709Z,5.30
2023-01-29T10:42:19.369Z,5.00
2023-01-29T10:45:18.332Z,5.10
2023-01-29T10:48:04.117Z,5.10
2023-01-29T10:50:57.035Z,4.90
2023-01-29T10:53:50.569Z,5.70
2023-01-29T10:56:41.667Z,5.40
2023-01-29T10:59:27.008Z,6.00
2023-01-29T11:01:58.543Z,5.40
2023-01-29T11:04:27.520Z,6.30
2023-01-29T11:06:53.797Z,5.40
2023-01-29T11:09:34.638Z,4.70
2023-01-29T11:12:02.905Z,4.50
2023-01-29T11:14:45.943Z,6.30
2023-01-29T11:17:17.142Z,4.40
2023-01-29T11:19:46.040Z,5.10
2023-01-29T11:22:52.428Z,5.40
2023-01-29T11:25:19.738Z,6.30
2023-01-29T11:30:22.766Z,5.00
2023-01-29T11:33:09.164Z,5.10
2023-01-29T11:35:36.001Z,5.20
2023-01-29T11:38:24.537Z,4.00
2023-01-29T11:40:51.782Z,5.40
2023-01-29T11:43:20.741Z,5.40
2023-01-29T11:45:50.300Z,5.60
2023-01-29T11:48:19.855Z,5.40
2023-01-29T11:51:20.962Z,5.30
2023-01-29T11:53:53.198Z,5.50
2023-01-29T11:56:26.552Z,5.30
2023-01-29T11:58:55.144Z,4.60
2023-01-29T12:01:37.769Z,5.80
2023-01-29T12:04:18.411Z,4.70
2023-01-29T12:06:48.547Z,5.20
2023-01-29T12:09:19.018Z,5.50
2023-01-29T12:11:45.072Z,5.40
2023-01-29T12:14:40.320Z,5.30
2023-01-29T12:17:23.414Z,5.50
2023-01-29T12:19:55.942Z,5.80
2023-01-29T12:22:37.812Z,6.30
2023-01-29T12:25:45.755Z,5.90
2023-01-29T12:28:37.091Z,5.30
2023-01-29T12:31:12.494Z,5.10
2023-01-29T12:34:02.669Z,5.40
2023-01-29T12:36:37.858Z,5.70
2023-01-29T12:39:04.440Z,4.90
2023-01-29T12:41:38.513Z,5.80
2023-01-29T12:44:17.243Z,6.40
2023-01-29T12:46:49.934Z,6.60
2023-01-29T12:49:21.606Z,5.90
2023-01-29T12:52:18.311Z,6.50
2023-01-29T12:54:53.471Z,7.20
2023-01-29T12:57:37.677Z,8.00
2023-01-29T13:00:13.725Z,6.40
2023-01-29T13:03:06.093Z,6.20
2023-01-29T13:05:45.687Z,6.90
2023-01-29T13:08:18.405Z,6.00
2023-01-29T13:10:49.977Z,7.70
2023-01-29T13:13:32.282Z,6.50
2023-01-29T13:16:00.527Z,6.30
2023-01-29T13:18:43.541Z,6.90
2023-01-29T13:21:18.654Z,6.80
2023-01-29T13:23:49.155Z,6.20
2023-01-29T13:26:20.719Z,6.30
2023-01-29T13:28:48.721Z,7.40
2023-01-29T13:31:26.843Z,5.70
2023-01-29T13:34:01.909Z,6.30
2023-01-29T13:36:30.403Z,6.40
2023-01-29T13:39:08.244Z,6.40
2023-01-29T13:41:39.272Z,6.00
2023-01-29T13:44:17.312Z,5.50
2023-01-29T13:47:08.003Z,5.80
2023-01-29T13:49:51.971Z,7.50
2023-01-29T13:52:42.348Z,6.80
2023-01-29T13:55:14.446Z,5.60
2023-01-29T13:57:43.405Z,7.00
2023-01-29T14:00:21.724Z,8.40
2023-01-29T14:03:11.072Z,6.90
2023-01-29T14:05:38.373Z,7.70
2023-01-29T14:08:13.555Z,6.50
2023-01-29T14:10:41.182Z,8.40
2023-01-29T14:13:17.487Z,6.80
2023-01-29T14:16:03.412Z,6.20
2023-01-29T14:18:32.692Z,7.30
2023-01-29T14:21:03.026Z,6.90
2023-01-29T14:23:45.436Z,7.10
2023-01-29T14:26:37.772Z,7.10
2023-01-29T14:29:25.647Z,7.70
2023-01-29T14:32:06.045Z,7.70
2023-01-29T14:34:48.092Z,8.00
2023-01-29T14:37:14.157Z,7.90
2023-01-29T14:39:45.249Z,7.60
2023-01-29T14:42:29.205Z,7.50
2023-01-29T14:44:57.847Z,7.30
2023-01-29T14:47:26.784Z,7.80
2023-01-29T14:49:58.523Z,8.60
2023-01-29T14:52:46.532Z,8.70
2023-01-29T14:55:29.363Z,8.70
2023-01-29T14:57:57.555Z,8.60
2023-01-29T15:00:30.757Z,8.00
2023-01-29T15:03:01.885Z,7.20
2023-01-29T15:05:32.180Z,8.60
2023-01-29T15:08:05.721Z,9.70
2023-01-29T15:10:43.474Z,9.30
2023-01-29T15:13:32.142Z,9.80
2023-01-29T15:16:12.247Z,8.30
2023-01-29T15:18:42.907Z,7.20
2023-01-29T15:21:14.201Z,8.10
2023-01-29T15:23:40.529Z,8.40
2023-01-29T15:26:10.971Z,9.70
2023-01-29T15:28:38.717Z,8.00
2023-01-29T15:31:11.281Z,9.10
2023-01-29T15:33:40.548Z,8.50
2023-01-29T15:36:08.400Z,8.30
2023-01-29T15:38:35.320Z,8.40
2023-01-29T15:41:03.786Z,9.00
2023-01-29T15:43:34.671Z,8.80
2023-01-29T15:46:06.905Z,8.30
2023-01-29T15:48:39.992Z,8.40
2023-01-29T15:51:07.871Z,9.70
2023-01-29T15:54:01.653Z,9.30
2023-01-29T15:56:28.933Z,9.20
2023-01-29T15:58:57.432Z,9.20
2023-01-29T16:01:26.358Z,8.60
2023-01-29T16:03:53.406Z,8.90
2023-01-29T16:06:20.779Z,8.10
2023-01-29T16:08:50.741Z,7.80
2023-01-29T16:11:18.928Z,9.40
2023-01-29T16:13:48.412Z,8.40
2023-01-29T16:16:14.349Z,8.80
2023-01-29T16:18:57.960Z,9.80
2023-01-29T16:21:39.222Z,9.50
2023-01-29T16:24:12.768Z,10.30
2023-01-29T16:26:44.097Z,10.60
2023-01-29T16:29:13.302Z,9.30
2023-01-29T16:31:41.187Z,10.30
2023-01-29T16:34:34.748Z,9.80
2023-01-29T16:37:04.847Z,9.00
2023-01-29T16:39:35.366Z,10.50
2023-01-29T16:42:11.638Z,9.40
2023-01-29T16:44:39.830Z,8.70
2023-01-29T16:47:29.044Z,9.30
2023-01-29T16:49:57.885Z,9.30
2023-01-29T16:52:27.567Z,8.90
2023-01-29T16:55:00.409Z,10.50
2023-01-29T16:57:31.925Z,12.70
2023-01-29T17:00:01.348Z,11.80
2023-01-29T17:02:37.887Z,12.30
2023-01-29T17:05:10.263Z,11.70
2023-01-29T17:07:37.310Z,12.50
2023-01-29T17:10:05.958Z,13.60
2023-01-29T17:12:33.370Z,11.50
2023-01-29T17:15:24.980Z,11.20
2023-01-29T17:17:51.145Z,12.10
2023-01-29T17:20:17.398Z,12.40
2023-01-29T17:22:44.529Z,12.50
2023-01-29T17:25:14.894Z,11.90
2023-01-29T17:27:43.696Z,11.40
2023-01-29T17:30:14.928Z,12.30
2023-01-29T17:32:44.552Z,10.90
2023-01-29T17:35:14.508Z,10.80
2023-01-29T17:37:40.980Z,11.30
2023-01-29T17:40:34.437Z,13.00
2023-01-29T17:43:00.414Z,12.90
2023-01-29T17:45:26.519Z,11.00
2023-01-29T17:47:52.448Z,11.00
2023-01-29T17:50:23.249Z,11.40
2023-01-29T17:52:49.688Z,12.70
2023-01-29T17:55:16.857Z,12.00
2023-01-29T17:57:42.986Z,12.10
2023-01-29T18:00:16.663Z,13.30
2023-01-29T18:02:42.900Z,12.50
2023-01-29T18:05:10.303Z,12.50
2023-01-29T18:07:37.947Z,13.00
2023-01-29T18:10:04.653Z,13.10
2023-01-29T18:12:30.543Z,13.60
2023-01-29T18:14:56.509Z,13.40
2023-01-29T18:17:22.935Z,13.60
2023-01-29T18:19:48.864Z,13.20
2023-01-29T18:22:15.390Z,13.30
2023-01-29T18:24:41.318Z,12.30
2023-01-29T18:27:08.180Z,11.20
2023-01-29T18:29:34.247Z,12.50
2023-01-29T18:32:00.235Z,11.50
2023-01-29T18:34:26.213Z,11.00
2023-01-29T18:36:52.158Z,11.50
2023-01-29T18:39:18.027Z,10.50
2023-01-29T18:41:44.046Z,10.30
2023-01-29T18:44:10.531Z,10.80
2023-01-29T18:46:36.490Z,10.40
2023-01-29T18:49:02.450Z,10.50
2023-01-29T18:51:28.493Z,10.80
2023-01-29T18:53:54.392Z,10.90
2023-01-29T18:56:20.338Z,11.00
2023-01-29T18:58:52.260Z,13.30
2023-01-29T19:01:22.209Z,12.80
2023-01-29T19:03:48.135Z,11.90
2023-01-29T19:06:14.094Z,14.20
2023-01-29T19:08:40.428Z,15.10
2023-01-29T19:11:08.328Z,12.60
2023-01-29T19:13:36.318Z,12.90
2023-01-29T19:16:06.381Z,12.90
2023-01-29T19:18:33.012Z,11.30
2023-01-29T19:20:58.927Z,14.00
2023-01-29T19:23:24.822Z,12.00
2023-01-29T19:25:50.832Z,13.10
2023-01-29T19:28:16.754Z,13.60
2023-01-29T19:30:42.819Z,13.90
2023-01-29T19:33:10.019Z,15.90
2023-01-29T19:35:36.007Z,16.50
2023-01-29T19:38:01.974Z,14.20
2023-01-29T19:40:27.987Z,14.90
2023-01-29T19:42:55.287Z,13.20
2023-01-29T19:45:38.583Z,13.80
2023-01-29T19:48:11.229Z,14.50
2023-01-29T19:50:37.470Z,14.30
2023-01-29T19:53:03.526Z,15.70
2023-01-29T19:55:29.565Z,16.30
2023-01-29T19:57:57.450Z,16.40
2023-01-29T20:00:23.814Z,16.20
2023-01-29T20:02:49.858Z,13.80
2023-01-29T20:05:17.782Z,15.10
2023-01-29T20:07:44.345Z,15.80
2023-01-29T20:10:16.435Z,14.90
2023-01-29T20:12:45.817Z,16.10
2023-01-29T20:15:13.395Z,13.30
2023-01-29T20:17:39.364Z,13.30
2023-01-29T20:20:06.150Z,14.30
2023-01-29T20:22:32.093Z,12.30
2023-01-29T20:24:58.093Z,13.00
2023-01-29T20:27:24.184Z,12.00
2023-01-29T20:29:51.813Z,13.10
2023-01-29T20:34:44.831Z,10.70
2023-01-29T20:37:10.772Z,11.70
2023-01-29T20:39:36.797Z,14.90
2023-01-29T20:42:02.988Z,12.90
2023-01-29T20:44:28.921Z,12.90
2023-01-29T20:46:55.598Z,13.80
2023-01-29T20:49:21.541Z,13.20
2023-01-29T20:51:47.473Z,14.60
2023-01-29T20:54:13.482Z,13.00
2023-01-29T20:56:44.258Z,14.60
2023-01-29T20:59:11.502Z,13.50
2023-01-29T21:01:37.761Z,13.70
2023-01-29T21:04:03.814Z,15.00
2023-01-29T21:06:30.443Z,13.60
2023-01-29T21:08:56.414Z,13.00
2023-01-29T21:11:22.518Z,12.60
2023-01-29T21:13:50.233Z,12.50
2023-01-29T21:16:16.308Z,15.00
2023-01-29T21:18:42.307Z,14.10
2023-01-29T21:21:08.351Z,13.70
2023-01-29T21:23:34.305Z,13.90
2023-01-29T21:26:05.084Z,13.00
2023-01-29T21:28:32.652Z,13.80
2023-01-29T21:31:17.006Z,12.70
2023-01-29T21:33:43.354Z,12.40
2023-01-29T21:36:10.057Z,12.70
2023-01-29T21:38:36.233Z,13.30
2023-01-29T21:41:05.218Z,14.40
2023-01-29T21:43:31.120Z,14.40
2023-01-29T21:45:59.803Z,14.60
2023-01-29T21:48:26.107Z,13.00
2023-01-29T21:50:52.078Z,13.40
2023-01-29T21:53:18.684Z,13.60
2023-01-29T21:55:45.568Z,14.30
2023-01-29T21:58:13.476Z,14.10
2023-01-29T22:00:40.402Z,14.10
2023-01-29T22:03:06.412Z,14.50
2023-01-29T22:05:33.079Z,12.90
2023-01-29T22:07:59.043Z,12.90
2023-01-29T22:10:25.252Z,12.40
2023-01-29T22:12:51.500Z,14.60
2023-01-29T22:15:17.500Z,15.30
2023-01-29T22:17:43.481Z,14.00
2023-01-29T22:20:11.630Z,13.60
2023-01-29T22:22:37.632Z,13.20
2023-01-29T22:25:04.668Z,13.80
2023-01-29T22:27:32.651Z,13.50
2023-01-29T22:29:59.209Z,12.90
2023-01-29T22:32:25.212Z,13.40
2023-01-29T22:34:51.254Z,14.30
2023-01-29T22:37:17.454Z,14.30
2023-01-29T22:39:43.385Z,14.30
2023-01-29T22:42:09.444Z,14.80
2023-01-29T22:44:35.475Z,13.50
2023-01-29T22:47:01.548Z,12.70
2023-01-29T22:49:29.519Z,12.50
2023-01-29T22:52:10.777Z,11.40
2023-01-29T22:54:41.194Z,14.10
2023-01-29T22:57:10.297Z,11.80
2023-01-29T22:59:36.761Z,11.50
2023-01-29T23:02:03.632Z,10.70
2023-01-29T23:04:29.625Z,13.30
2023-01-29T23:06:55.672Z,10.40
2023-01-29T23:09:21.707Z,12.10
2023-01-29T23:11:47.610Z,11.50
2023-01-29T23:14:13.554Z,11.40
2023-01-29T23:16:39.416Z,9.60
2023-01-29T23:19:05.342Z,9.30
2023-01-29T23:21:31.379Z,10.60
2023-01-29T23:24:00.628Z,10.00
2023-01-29T23:26:46.901Z,9.70
2023-01-29T23:29:13.628Z,9.60
2023-01-29T23:31:39.534Z,9.00
2023-01-29T23:34:05.534Z,9.00
2023-01-29T23:36:31.639Z,9.50
2023-01-29T23:38:57.550Z,9.90
2023-01-29T23:41:23.713Z,9.70
2023-01-29T23:43:49.662Z,8.90
2023-01-29T23:46:15.689Z,9.20
2023-01-29T23:48:41.621Z,10.00
2023-01-29T23:51:07.578Z,10.20
2023-01-29T23:53:33.597Z,11.00
2023-01-29T23:56:02.835Z,10.10
2023-01-29T23:58:30.530Z,10.10
